WetterOnline ( https://www.wetteronline.de )

Wetter aktuell Alsfeld

Aktuelles Wetter: Neu-Ulrichstein (350m)

6-stündlich | Neueste Meldungen
Ortszeit Temperatur Wetter
So, 02.10. 2:00 9.7° C fast wolkenlos
Sa, 01.10. 20:00 12.0° C leichter Regen
Sa, 01.10. 14:00 10.3° C Regen
Sa, 01.10. 8:00 7.8° C leichter Regen
Sa, 01.10. 2:00 7.9° C bewölkt
Fr, 30.09. 20:00 9.4° C wolkenlos
Fr, 30.09. 14:00 12.3° C fast wolkenlos
Fr, 30.09. 8:00 0.8° C Nebel
Ortszeit Temperatur Wetter
So, 02.10. 7:10 10.6° C bedeckt
So, 02.10. 7:00 10.5° C bewölkt
So, 02.10. 6:50 10.5° C bewölkt
So, 02.10. 6:40 10.4° C bedeckt
So, 02.10. 6:30 10.3° C bewölkt
So, 02.10. 6:20 10.3° C bewölkt
So, 02.10. 6:00 10.3° C bewölkt
So, 02.10. 5:30 10.3° C bedeckt
So, 02.10. 5:00 10.0° C bewölkt
So, 02.10. 4:30 10.2° C Sprühregen
Ortszeit Relative Feuchte Sichtweite
So, 02.10. 2:00 97% 22 km
Sa, 01.10. 20:00 77% 35 km
Sa, 01.10. 14:00 98% 30 km
Sa, 01.10. 8:00 96% 9 km
Sa, 01.10. 2:00 90% 27 km
Fr, 30.09. 20:00 76% 45 km
Fr, 30.09. 14:00 67% 35 km
Fr, 30.09. 8:00 100% 100 m
Ortszeit Relative Feuchte Sichtweite
So, 02.10. 7:10 97% -
So, 02.10. 7:00 98% 15 km
So, 02.10. 6:50 98% -
So, 02.10. 6:40 98% -
So, 02.10. 6:30 99% 14 km
So, 02.10. 6:20 99% -
So, 02.10. 6:00 99% 14 km
So, 02.10. 5:30 97% 19 km
So, 02.10. 5:00 98% 19 km
So, 02.10. 4:30 97% 22 km
Ortszeit Niederschlagsmenge Niederschlagsart
So, 02.10. 2:00 0.1 l/m2 in 6 Std. Regen
Sa, 01.10. 20:00 7 l/m2 in 12 Std. Regen
Sa, 01.10. 14:00 4 l/m2 in 6 Std. Regen
Sa, 01.10. 8:00 5 l/m2 in 12 Std. Regen
Sa, 01.10. 2:00 0.0 l/m2 in 6 Std. -
Fr, 30.09. 20:00 0.0 l/m2 in 12 Std. -
Fr, 30.09. 14:00 0.0 l/m2 in 6 Std. -
Fr, 30.09. 8:00 0.0 l/m2 in 12 Std. -
Ortszeit Niederschlagsmenge Niederschlagsart
So, 02.10. 7:10 keine Meldung -
So, 02.10. 7:00 <0.05 l/m2 in 1 Std. Sprühregen
So, 02.10. 6:50 keine Meldung -
So, 02.10. 6:40 keine Meldung -
So, 02.10. 6:30 <0.05 l/m2 in 1 Std. Schnee
So, 02.10. 6:20 keine Meldung -
So, 02.10. 6:00 0.2 l/m2 in 1 Std. Regen
So, 02.10. 5:30 0.0 l/m2 in 1 Std. -
So, 02.10. 5:00 <0.05 l/m2 in 1 Std. Regen
So, 02.10. 4:30 <0.05 l/m2 in 1 Std. -
Ortszeit Stärke Spitze Richtung
km/h Bft. km/h Grad Sektor
So, 02.10. 2:00 14 3 43 200° S
Sa, 01.10. 20:00 28 4 50 250° W
Sa, 01.10. 14:00 22 4 58 190° S
Sa, 01.10. 8:00 39 6 61 180° S
Sa, 01.10. 2:00 13 3 24 200° S
Fr, 30.09. 20:00 13 3 28 170° S
Fr, 30.09. 14:00 9 2 19 270° W
Fr, 30.09. 8:00 6 1 9 300° NW
Ortszeit Stärke Spitze Richtung
km/h Bft. km/h Grad Sektor
So, 02.10. 7:10 15 3 - 200° S
So, 02.10. 7:00 14 3 22 190° S
So, 02.10. 6:50 14 3 - 190° S
So, 02.10. 6:40 15 3 - 190° S
So, 02.10. 6:30 14 3 22 200° S
So, 02.10. 6:20 14 3 - 200° S
So, 02.10. 6:00 14 3 25 190° S
So, 02.10. 5:30 14 3 22 190° S
So, 02.10. 5:00 14 3 22 190° S
So, 02.10. 4:30 13 3 20 200° S
Ortszeit Untergrenze Bedeckung Gattung
total tief tief mittel hoch
So, 02.10. 2:00 1500 m 1/8 1/8 - - -
Sa, 01.10. 20:00 1110 m 8/8 7/8 - - -
Sa, 01.10. 14:00 90 m 8/8 8/8 - - -
Sa, 01.10. 8:00 180 m 7/8 7/8 - - -
Sa, 01.10. 2:00 6600 m 8/8 6/8 - - -
Fr, 30.09. 20:00 - 0/8 0/8 - - -
Fr, 30.09. 14:00 870 m 1/8 1/8 - - -
Fr, 30.09. 8:00 <30 m 7/8 0/8 - - -
Ortszeit Bedeckungsgrad in Achtel und Wolkenuntergrenze
So, 02.10. 7:10 8
So, 02.10. 7:00 6(180m) 8(4800m) 8(5700m)
So, 02.10. 6:50 6(180m) 8(4800m) 8(5700m)
So, 02.10. 6:40 8
So, 02.10. 6:30 7(120m) 7(480m) 8(5100m)
So, 02.10. 6:20 7(120m) 7(480m) 8(5100m)
So, 02.10. 6:00 7(210m) 7(630m) 7(990m)
So, 02.10. 5:30 2(180m) 8(1500m) 8(5700m)
So, 02.10. 5:00 2(630m) 7(1800m) 8(6300m)
So, 02.10. 4:30 5(660m) 7(6000m) 8(6600m)
Ortszeit Luftdruck NN (hPa) Tendenz (hPa in 3 Std.)
So, 02.10. 2:00 1017 + 2,0
Sa, 01.10. 20:00 1011 + 2,8
Sa, 01.10. 14:00 1007 + 0,6
Sa, 01.10. 8:00 1008 - 1,9
Sa, 01.10. 2:00 1012 - 0,9
Fr, 30.09. 20:00 1012 - 0,1
Fr, 30.09. 14:00 1012 + 0,2
Fr, 30.09. 8:00 1012 + 1,7
Ortszeit Luftdruck NN (hPa) Tendenz (hPa in 3 Std.)
So, 02.10. 7:10 1017 keine Meldung
So, 02.10. 7:00 1017 - 0,2
So, 02.10. 6:50 1017 keine Meldung
So, 02.10. 6:40 1017 keine Meldung
So, 02.10. 6:30 1017 0,0
So, 02.10. 6:20 1017 keine Meldung
So, 02.10. 6:00 1017 + 0,1
So, 02.10. 5:30 1017 + 0,1
So, 02.10. 5:00 1017 + 0,4
So, 02.10. 4:30 1017 + 0,6
Ortszeit Schneehöhe (cm)
So, 02.10. 2:00 0
Sa, 01.10. 20:00 0
Sa, 01.10. 14:00 0
Sa, 01.10. 8:00 0
Sa, 01.10. 2:00 0
Fr, 30.09. 20:00 0
Fr, 30.09. 14:00 0
Fr, 30.09. 8:00 0
Ortszeit Schneehöhe (cm)
So, 02.10. 7:10 0
So, 02.10. 7:00 0
So, 02.10. 6:50 0
So, 02.10. 6:40 0
So, 02.10. 6:30 0
So, 02.10. 6:20 0
So, 02.10. 6:00 0
So, 02.10. 5:30 0
So, 02.10. 5:00 0
So, 02.10. 4:30 0
Link zu dieser Seite / Seite empfehlen

Das Wetter in ...